Ardsley On Hudson, NY

7:25 PM EDT on August 28, 2014 (GMT -0400)
KNYTARRY3 | Change Station
CLOSE
Current Station
Personal Weather Station
Location: Tarrytown, NY
Elevation: 341 ft
Nearby Weather Stations

Elev 341 ft 41.05 °N, 73.85 °W | Updated 15 seconds ago

Partly Cloudy
Partly Cloudy
73.1 °F
Feels Like 77 °F
N
3.5
Wind Variable Wind from NNE
Gusts 3.5 mph

Today
High -- | Low -- °F
--% Chance of Precip.
Yesterday
High -- | Low -- °F
Precip. -- in
6:18 AM 7:34 PM
Waxing Crescent, 10% visible
Pressure 29.93 in
Visibility 10.0 miles
Clouds Scattered Clouds 6000 ft
Heat Index 77 °F
Dew Point 53 °F
Humidity 50%
Rainfall 0.00 in
Snow Depth Not available.
UV 0 out of 12
Pollen 10.20 out of 12
Ozone Good
PM2.5 Good
Flu Activity Not available.
METAR KHPN 282256Z 34009KT 10SM SCT060 23/09 A2994 RMK AO2 SLP133 T02330094

More Conditions Fewer Conditions

Pressure 29.93 in
Visibility 10.0 miles
Clouds Scattered Clouds 6000 ft
Heat Index 77 °F
Dew Point 53 °F
Humidity 50%
Rainfall 0.00 in
Snow Depth Not available.
UV 0 out of 12
Pollen 10.20 out of 12
Ozone Good
PM2.5 Good
Flu Activity Not available.
METAR KHPN 282256Z 34009KT 10SM SCT060 23/09 A2994 RMK AO2 SLP133 T02330094

More Conditions Fewer Conditions

10-Day Weather Forecast

Almanac

Astronomy

Aug. 28, 2014 Rise Set
Actual Time 6:18 AM EDT 7:34 PM EDT
Civil Twilight 5:49 AM EDT 8:02 PM EDT
Nautical Twilight 5:15 AM EDT 8:36 PM EDT
Astronomical Twilight 4:39 AM EDT 9:12 PM EDT
Moon 9:09 AM EDT 8:55 PM EDT
Length of Visible Light 14h 13m
Length of Day
13h 16m
Tomorrow will be 2m 36s shorter.
Waxing Crescent, 10% of the Moon is Illuminated
Today
Waxing Crescent
Sep 2
First Quarter
Sep 8
Full
Sep 15
Last Quarter
Sep 24
New

Today's Extremes

State Highs State Lows

Community

WunderPhotos

Upload Photos

1,748,104 photos uploaded!

Nearby

Air Quality

  Air Quality AQ Index Pollutant
Yesterday Unhealthy for Sensitive Groups
OZONE
Yesterday Good
PM2.5
Current Good
OZONE
Current Good
PM2.5
Thursday Good
OZONE
Thursday Good
PM2.5
Friday Good
OZONE
Friday Good
PM2.5

Snow Depth

Station Depth Elevation
No new snow has been reported.

Earthquake Activity

City Distance Mag. Time & Date
No recent earthquake activity has been reported nearby.
Minimum magnitude displayed is 2.5.

Coastal Water Temperatures

Place Temperature
Bridgeport, CT 75.0 °F

Nearby Weather Stations